EmailTwitter


Observations de surface / Québec / EGHH

Régions: Québec | Canada | États-Unis | Europe | France | UK | Elsewhere
Station
Affichage
Infos & localisation pour EGHH | Aide pour décoder les METARs

Observations prises le 2017-05-24 à 05H50 UTC à BOURNEMOUTH AIRP, UK (EGHH)

Etat du ciel: partiellement nuageux.

Température: 13.0 Celsius

Point de rosée: 12.0 Celsius

Humidité relative: 94%

Vents: Nord-nord-est à 7 km/h ou 4 noeuds.

Pression au niveau moyen de la mer: 102.60 kilopascals.

Visibilité horizontale: 6.21 milles terrestres ou 9.94 kilomètres.

Hauteur du plafond: 914 mètres ( 3000 pieds ).

Observation METAR:

EGHH 240550Z 02004KT 330V050 9999 SCT005 BKN030 13/12 Q1026=